sensor_id;sensor_type;location;lat;lon;timestamp;temperature;humidity
70244;DHT22;57634;51.136;17.024;2023-01-30T00:02:59;1.80;73.80
70244;DHT22;57634;51.136;17.024;2023-01-30T00:06:01;1.80;73.80
70244;DHT22;57634;51.136;17.024;2023-01-30T00:09:02;1.70;73.70
70244;DHT22;57634;51.136;17.024;2023-01-30T00:12:30;1.70;73.80
70244;DHT22;57634;51.136;17.024;2023-01-30T00:15:31;1.60;73.90
70244;DHT22;57634;51.136;17.024;2023-01-30T00:18:32;1.50;74.00
70244;DHT22;57634;51.136;17.024;2023-01-30T00:21:33;1.50;74.10
70244;DHT22;57634;51.136;17.024;2023-01-30T00:24:35;1.40;74.10
70244;DHT22;57634;51.136;17.024;2023-01-30T00:27:36;1.40;74.10
70244;DHT22;57634;51.136;17.024;2023-01-30T00:30:38;1.30;74.20
70244;DHT22;57634;51.136;17.024;2023-01-30T00:33:39;1.30;74.30
70244;DHT22;57634;51.136;17.024;2023-01-30T00:36:40;1.20;74.30
70244;DHT22;57634;51.136;17.024;2023-01-30T00:39:42;1.10;74.30
70244;DHT22;57634;51.136;17.024;2023-01-30T00:42:43;1.10;74.50
70244;DHT22;57634;51.136;17.024;2023-01-30T00:45:57;1.10;74.50
70244;DHT22;57634;51.136;17.024;2023-01-30T00:49:36;1.00;74.40
70244;DHT22;57634;51.136;17.024;2023-01-30T00:52:38;1.00;74.60
70244;DHT22;57634;51.136;17.024;2023-01-30T00:55:39;1.00;74.60
70244;DHT22;57634;51.136;17.024;2023-01-30T00:58:41;1.00;74.60
70244;DHT22;57634;51.136;17.024;2023-01-30T01:01:42;1.00;74.60
70244;DHT22;57634;51.136;17.024;2023-01-30T01:04:43;1.00;74.60
70244;DHT22;57634;51.136;17.024;2023-01-30T01:07:45;0.90;74.50
70244;DHT22;57634;51.136;17.024;2023-01-30T01:10:47;0.90;74.60
70244;DHT22;57634;51.136;17.024;2023-01-30T01:13:50;0.90;74.60
70244;DHT22;57634;51.136;17.024;2023-01-30T01:16:52;0.90;74.70
70244;DHT22;57634;51.136;17.024;2023-01-30T01:19:53;0.90;74.70
70244;DHT22;57634;51.136;17.024;2023-01-30T01:22:55;0.90;74.80
70244;DHT22;57634;51.136;17.024;2023-01-30T01:26:00;0.90;74.80
70244;DHT22;57634;51.136;17.024;2023-01-30T01:29:29;0.90;74.90
70244;DHT22;57634;51.136;17.024;2023-01-30T01:32:31;0.90;75.10
70244;DHT22;57634;51.136;17.024;2023-01-30T01:35:32;0.90;75.20
70244;DHT22;57634;51.136;17.024;2023-01-30T01:38:34;0.90;75.30
70244;DHT22;57634;51.136;17.024;2023-01-30T01:41:35;1.00;75.30
70244;DHT22;57634;51.136;17.024;2023-01-30T01:51:05;1.10;75.20
70244;DHT22;57634;51.136;17.024;2023-01-30T01:54:46;1.20;75.10
70244;DHT22;57634;51.136;17.024;2023-01-30T01:57:59;1.20;75.00
70244;DHT22;57634;51.136;17.024;2023-01-30T02:01:03;1.30;74.90
70244;DHT22;57634;51.136;17.024;2023-01-30T02:04:07;1.30;74.80
70244;DHT22;57634;51.136;17.024;2023-01-30T02:07:11;1.40;74.90
70244;DHT22;57634;51.136;17.024;2023-01-30T02:10:18;1.40;74.70
70244;DHT22;57634;51.136;17.024;2023-01-30T02:13:48;1.40;74.70
70244;DHT22;57634;51.136;17.024;2023-01-30T02:16:50;1.40;74.60
70244;DHT22;57634;51.136;17.024;2023-01-30T02:19:59;1.40;74.60
70244;DHT22;57634;51.136;17.024;2023-01-30T02:29:38;1.40;74.40
70244;DHT22;57634;51.136;17.024;2023-01-30T02:49:48;1.40;74.30
70244;DHT22;57634;51.136;17.024;2023-01-30T02:52:52;1.40;74.30
70244;DHT22;57634;51.136;17.024;2023-01-30T02:55:55;1.40;74.20
70244;DHT22;57634;51.136;17.024;2023-01-30T02:59:03;1.40;74.30
70244;DHT22;57634;51.136;17.024;2023-01-30T03:02:16;1.40;74.10
70244;DHT22;57634;51.136;17.024;2023-01-30T03:05:54;1.40;74.10
70244;DHT22;57634;51.136;17.024;2023-01-30T03:09:10;1.40;74.20
70244;DHT22;57634;51.136;17.024;2023-01-30T03:15:39;1.40;74.10
70244;DHT22;57634;51.136;17.024;2023-01-30T03:19:12;1.40;74.10
70244;DHT22;57634;51.136;17.024;2023-01-30T03:22:13;1.40;74.10
70244;DHT22;57634;51.136;17.024;2023-01-30T03:25:20;1.40;74.00
70244;DHT22;57634;51.136;17.024;2023-01-30T03:28:22;1.40;73.90
70244;DHT22;57634;51.136;17.024;2023-01-30T03:31:24;1.50;74.00
70244;DHT22;57634;51.136;17.024;2023-01-30T03:34:25;1.50;73.90
70244;DHT22;57634;51.136;17.024;2023-01-30T03:37:26;1.50;73.90
70244;DHT22;57634;51.136;17.024;2023-01-30T03:40:28;1.50;73.80
70244;DHT22;57634;51.136;17.024;2023-01-30T03:43:30;1.50;73.80
70244;DHT22;57634;51.136;17.024;2023-01-30T03:46:31;1.60;73.80
70244;DHT22;57634;51.136;17.024;2023-01-30T03:49:32;1.50;73.60
70244;DHT22;57634;51.136;17.024;2023-01-30T03:52:34;1.50;73.60
70244;DHT22;57634;51.136;17.024;2023-01-30T03:56:04;1.50;73.40
70244;DHT22;57634;51.136;17.024;2023-01-30T03:59:06;1.50;73.20
70244;DHT22;57634;51.136;17.024;2023-01-30T04:02:07;1.50;73.00
70244;DHT22;57634;51.136;17.024;2023-01-30T04:05:08;1.50;72.90
70244;DHT22;57634;51.136;17.024;2023-01-30T04:08:10;1.50;72.70
70244;DHT22;57634;51.136;17.024;2023-01-30T04:11:11;1.60;72.70
70244;DHT22;57634;51.136;17.024;2023-01-30T04:14:12;1.60;72.30
70244;DHT22;57634;51.136;17.024;2023-01-30T04:17:13;1.60;72.20
70244;DHT22;57634;51.136;17.024;2023-01-30T04:20:15;1.60;72.10
70244;DHT22;57634;51.136;17.024;2023-01-30T04:23:16;1.60;72.00
70244;DHT22;57634;51.136;17.024;2023-01-30T04:26:17;1.60;71.90
70244;DHT22;57634;51.136;17.024;2023-01-30T04:29:18;1.50;71.70
70244;DHT22;57634;51.136;17.024;2023-01-30T04:32:20;1.50;71.60
70244;DHT22;57634;51.136;17.024;2023-01-30T04:35:21;1.50;71.60
70244;DHT22;57634;51.136;17.024;2023-01-30T04:38:23;1.50;71.50
70244;DHT22;57634;51.136;17.024;2023-01-30T04:41:51;1.50;71.50
70244;DHT22;57634;51.136;17.024;2023-01-30T04:44:52;1.50;71.60
70244;DHT22;57634;51.136;17.024;2023-01-30T04:47:54;1.50;71.50
70244;DHT22;57634;51.136;17.024;2023-01-30T04:50:55;1.60;71.50
70244;DHT22;57634;51.136;17.024;2023-01-30T04:53:57;1.60;71.50
70244;DHT22;57634;51.136;17.024;2023-01-30T04:56:58;1.60;71.50
70244;DHT22;57634;51.136;17.024;2023-01-30T04:59:59;1.60;71.60
70244;DHT22;57634;51.136;17.024;2023-01-30T05:03:00;1.60;71.70
70244;DHT22;57634;51.136;17.024;2023-01-30T05:06:02;1.60;71.70
70244;DHT22;57634;51.136;17.024;2023-01-30T05:09:04;1.70;71.80
70244;DHT22;57634;51.136;17.024;2023-01-30T05:12:05;1.70;71.90
70244;DHT22;57634;51.136;17.024;2023-01-30T05:15:07;1.70;71.90
70244;DHT22;57634;51.136;17.024;2023-01-30T05:18:09;1.70;72.00
70244;DHT22;57634;51.136;17.024;2023-01-30T05:21:15;1.70;72.10
70244;DHT22;57634;51.136;17.024;2023-01-30T05:24:43;1.70;72.20
70244;DHT22;57634;51.136;17.024;2023-01-30T05:27:44;1.80;72.40
70244;DHT22;57634;51.136;17.024;2023-01-30T05:30:45;1.70;72.30
70244;DHT22;57634;51.136;17.024;2023-01-30T05:33:48;1.70;72.30
70244;DHT22;57634;51.136;17.024;2023-01-30T05:36:49;1.70;72.30
70244;DHT22;57634;51.136;17.024;2023-01-30T05:39:51;1.70;72.50
70244;DHT22;57634;51.136;17.024;2023-01-30T05:42:53;1.60;72.50
70244;DHT22;57634;51.136;17.024;2023-01-30T05:45:55;1.70;72.70
70244;DHT22;57634;51.136;17.024;2023-01-30T05:48:57;1.70;72.70
70244;DHT22;57634;51.136;17.024;2023-01-30T05:51:58;1.70;72.60
70244;DHT22;57634;51.136;17.024;2023-01-30T05:54:59;1.80;72.70
70244;DHT22;57634;51.136;17.024;2023-01-30T05:58:01;1.80;72.60
70244;DHT22;57634;51.136;17.024;2023-01-30T06:01:04;1.80;72.70
70244;DHT22;57634;51.136;17.024;2023-01-30T06:04:06;1.80;72.60
70244;DHT22;57634;51.136;17.024;2023-01-30T06:07:33;1.80;72.70
70244;DHT22;57634;51.136;17.024;2023-01-30T06:10:35;1.90;72.70
70244;DHT22;57634;51.136;17.024;2023-01-30T06:13:37;1.90;72.80
70244;DHT22;57634;51.136;17.024;2023-01-30T06:16:38;1.90;72.80
70244;DHT22;57634;51.136;17.024;2023-01-30T06:19:40;2.00;72.80
70244;DHT22;57634;51.136;17.024;2023-01-30T06:22:41;2.00;72.80
70244;DHT22;57634;51.136;17.024;2023-01-30T06:25:44;2.00;72.70
70244;DHT22;57634;51.136;17.024;2023-01-30T06:28:45;2.00;72.80
70244;DHT22;57634;51.136;17.024;2023-01-30T06:31:47;2.00;72.80
70244;DHT22;57634;51.136;17.024;2023-01-30T06:34:48;2.10;72.80
70244;DHT22;57634;51.136;17.024;2023-01-30T06:37:49;2.10;72.70
70244;DHT22;57634;51.136;17.024;2023-01-30T06:40:50;2.10;72.70
70244;DHT22;57634;51.136;17.024;2023-01-30T06:43:52;2.10;72.90
70244;DHT22;57634;51.136;17.024;2023-01-30T06:46:53;2.10;72.90
70244;DHT22;57634;51.136;17.024;2023-01-30T06:49:54;2.10;73.10
70244;DHT22;57634;51.136;17.024;2023-01-30T06:53:21;4.20;74.30
70244;DHT22;57634;51.136;17.024;2023-01-30T06:56:30;2.20;73.30
70244;DHT22;57634;51.136;17.024;2023-01-30T06:59:31;2.20;73.40
70244;DHT22;57634;51.136;17.024;2023-01-30T07:02:33;2.20;73.50
70244;DHT22;57634;51.136;17.024;2023-01-30T07:05:37;2.20;73.60
70244;DHT22;57634;51.136;17.024;2023-01-30T07:08:39;2.30;73.90
70244;DHT22;57634;51.136;17.024;2023-01-30T07:11:40;2.20;74.00
70244;DHT22;57634;51.136;17.024;2023-01-30T07:14:42;2.30;74.20
70244;DHT22;57634;51.136;17.024;2023-01-30T07:17:43;2.30;74.30
70244;DHT22;57634;51.136;17.024;2023-01-30T07:20:48;2.30;74.50
70244;DHT22;57634;51.136;17.024;2023-01-30T07:23:50;2.30;74.70
70244;DHT22;57634;51.136;17.024;2023-01-30T07:26:51;2.30;74.80
70244;DHT22;57634;51.136;17.024;2023-01-30T07:30:19;2.20;75.10
70244;DHT22;57634;51.136;17.024;2023-01-30T07:33:20;2.30;75.50
70244;DHT22;57634;51.136;17.024;2023-01-30T07:36:22;2.30;76.00
70244;DHT22;57634;51.136;17.024;2023-01-30T07:39:24;2.20;76.10
70244;DHT22;57634;51.136;17.024;2023-01-30T07:42:25;2.20;76.50
70244;DHT22;57634;51.136;17.024;2023-01-30T07:45:35;2.20;76.90
70244;DHT22;57634;51.136;17.024;2023-01-30T07:48:37;2.20;77.20
70244;DHT22;57634;51.136;17.024;2023-01-30T07:51:38;2.20;77.50
70244;DHT22;57634;51.136;17.024;2023-01-30T07:54:39;2.20;77.70
70244;DHT22;57634;51.136;17.024;2023-01-30T07:57:41;2.20;77.90
70244;DHT22;57634;51.136;17.024;2023-01-30T08:00:42;2.20;78.10
70244;DHT22;57634;51.136;17.024;2023-01-30T08:03:44;2.20;78.20
70244;DHT22;57634;51.136;17.024;2023-01-30T08:07:14;2.20;78.40
70244;DHT22;57634;51.136;17.024;2023-01-30T08:10:16;2.20;78.50
70244;DHT22;57634;51.136;17.024;2023-01-30T08:13:18;2.30;78.70
70244;DHT22;57634;51.136;17.024;2023-01-30T08:16:19;2.30;78.80
70244;DHT22;57634;51.136;17.024;2023-01-30T08:19:20;2.30;78.90
70244;DHT22;57634;51.136;17.024;2023-01-30T08:22:21;2.30;78.90
70244;DHT22;57634;51.136;17.024;2023-01-30T08:25:22;2.40;78.90
70244;DHT22;57634;51.136;17.024;2023-01-30T08:28:24;2.40;78.80
70244;DHT22;57634;51.136;17.024;2023-01-30T08:31:26;2.40;78.60
70244;DHT22;57634;51.136;17.024;2023-01-30T08:34:27;2.40;78.60
70244;DHT22;57634;51.136;17.024;2023-01-30T08:37:29;2.50;78.70
70244;DHT22;57634;51.136;17.024;2023-01-30T08:40:30;2.60;78.50
70244;DHT22;57634;51.136;17.024;2023-01-30T08:43:32;2.60;78.30
70244;DHT22;57634;51.136;17.024;2023-01-30T08:46:34;2.70;78.20
70244;DHT22;57634;51.136;17.024;2023-01-30T08:49:35;2.70;78.00
70244;DHT22;57634;51.136;17.024;2023-01-30T08:53:04;2.80;78.00
70244;DHT22;57634;51.136;17.024;2023-01-30T08:56:06;2.80;78.10
70244;DHT22;57634;51.136;17.024;2023-01-30T08:59:08;2.80;78.10
70244;DHT22;57634;51.136;17.024;2023-01-30T09:02:10;2.80;78.20
70244;DHT22;57634;51.136;17.024;2023-01-30T09:05:12;2.90;78.50
70244;DHT22;57634;51.136;17.024;2023-01-30T09:08:13;2.90;78.70
70244;DHT22;57634;51.136;17.024;2023-01-30T09:11:14;2.90;78.90
70244;DHT22;57634;51.136;17.024;2023-01-30T09:14:16;2.90;79.10
70244;DHT22;57634;51.136;17.024;2023-01-30T09:17:19;3.00;79.30
70244;DHT22;57634;51.136;17.024;2023-01-30T09:20:20;3.00;79.70
70244;DHT22;57634;51.136;17.024;2023-01-30T09:23:22;3.00;79.90
70244;DHT22;57634;51.136;17.024;2023-01-30T09:26:23;3.00;80.10
70244;DHT22;57634;51.136;17.024;2023-01-30T09:29:25;3.10;80.30
70244;DHT22;57634;51.136;17.024;2023-01-30T09:32:54;3.10;80.40
70244;DHT22;57634;51.136;17.024;2023-01-30T09:35:56;3.10;80.60
70244;DHT22;57634;51.136;17.024;2023-01-30T09:38:57;3.20;80.80
70244;DHT22;57634;51.136;17.024;2023-01-30T09:51:44;3.30;81.50
70244;DHT22;57634;51.136;17.024;2023-01-30T09:55:20;3.30;81.50
70244;DHT22;57634;51.136;17.024;2023-01-30T09:58:25;3.30;81.80
70244;DHT22;57634;51.136;17.024;2023-01-30T10:04:44;3.30;82.10
70244;DHT22;57634;51.136;17.024;2023-01-30T10:14:58;3.10;83.20
70244;DHT22;57634;51.136;17.024;2023-01-30T10:25:05;3.00;84.10
70244;DHT22;57634;51.136;17.024;2023-01-30T10:31:23;3.00;84.80
70244;DHT22;57634;51.136;17.024;2023-01-30T10:34:30;3.00;85.00
70244;DHT22;57634;51.136;17.024;2023-01-30T10:37:41;3.00;85.10
70244;DHT22;57634;51.136;17.024;2023-01-30T10:41:19;3.00;85.10
70244;DHT22;57634;51.136;17.024;2023-01-30T10:44:23;3.00;85.40
70244;DHT22;57634;51.136;17.024;2023-01-30T10:47:37;3.00;85.50
70244;DHT22;57634;51.136;17.024;2023-01-30T10:50:54;3.00;85.80
70244;DHT22;57634;51.136;17.024;2023-01-30T11:01:00;3.10;86.00
70244;DHT22;57634;51.136;17.024;2023-01-30T11:04:06;3.20;86.10
70244;DHT22;57634;51.136;17.024;2023-01-30T11:07:11;3.20;86.10
70244;DHT22;57634;51.136;17.024;2023-01-30T11:10:16;3.30;86.20
70244;DHT22;57634;51.136;17.024;2023-01-30T11:16:57;3.40;86.00
70244;DHT22;57634;51.136;17.024;2023-01-30T11:20:17;3.50;86.10
70244;DHT22;57634;51.136;17.024;2023-01-30T11:23:25;3.50;86.10
70244;DHT22;57634;51.136;17.024;2023-01-30T11:26:33;3.50;86.10
70244;DHT22;57634;51.136;17.024;2023-01-30T11:29:38;3.60;86.30
70244;DHT22;57634;51.136;17.024;2023-01-30T11:32:44;3.60;86.30
70244;DHT22;57634;51.136;17.024;2023-01-30T11:39:27;3.70;86.20
70244;DHT22;57634;51.136;17.024;2023-01-30T11:42:30;3.80;86.10
70244;DHT22;57634;51.136;17.024;2023-01-30T11:45:43;3.80;86.00
70244;DHT22;57634;51.136;17.024;2023-01-30T11:48:53;3.90;86.00
70244;DHT22;57634;51.136;17.024;2023-01-30T11:51:54;3.90;85.80
70244;DHT22;57634;51.136;17.024;2023-01-30T11:55:24;4.00;85.80
70244;DHT22;57634;51.136;17.024;2023-01-30T11:58:30;4.10;85.70
70244;DHT22;57634;51.136;17.024;2023-01-30T12:01:34;4.10;85.50
70244;DHT22;57634;51.136;17.024;2023-01-30T12:04:37;4.20;85.40
70244;DHT22;57634;51.136;17.024;2023-01-30T12:07:38;4.30;85.40
70244;DHT22;57634;51.136;17.024;2023-01-30T12:10:42;4.30;85.30
70244;DHT22;57634;51.136;17.024;2023-01-30T12:13:44;4.30;85.30
70244;DHT22;57634;51.136;17.024;2023-01-30T12:20:10;4.50;85.60
70244;DHT22;57634;51.136;17.024;2023-01-30T12:23:47;4.60;85.60
70244;DHT22;57634;51.136;17.024;2023-01-30T12:26:54;4.70;85.40
70244;DHT22;57634;51.136;17.024;2023-01-30T12:30:09;4.80;85.20
70244;DHT22;57634;51.136;17.024;2023-01-30T12:33:12;4.80;84.90
70244;DHT22;57634;51.136;17.024;2023-01-30T12:49:47;5.10;84.40
70244;DHT22;57634;51.136;17.024;2023-01-30T12:59:57;5.20;83.90
70244;DHT22;57634;51.136;17.024;2023-01-30T13:13:13;5.40;83.20
70244;DHT22;57634;51.136;17.024;2023-01-30T13:20:04;5.50;83.00
70244;DHT22;57634;51.136;17.024;2023-01-30T13:23:17;5.50;82.80
70244;DHT22;57634;51.136;17.024;2023-01-30T13:26:23;5.50;82.50
70244;DHT22;57634;51.136;17.024;2023-01-30T13:29:30;5.50;82.20
70244;DHT22;57634;51.136;17.024;2023-01-30T13:32:42;5.50;82.20
70244;DHT22;57634;51.136;17.024;2023-01-30T13:35:48;5.50;82.50
70244;DHT22;57634;51.136;17.024;2023-01-30T13:45:42;5.50;82.40
70244;DHT22;57634;51.136;17.024;2023-01-30T13:55:52;5.60;82.50
70244;DHT22;57634;51.136;17.024;2023-01-30T14:02:18;5.70;82.10
70244;DHT22;57634;51.136;17.024;2023-01-30T14:08:56;5.80;81.50
70244;DHT22;57634;51.136;17.024;2023-01-30T14:12:18;5.90;81.40
70244;DHT22;57634;51.136;17.024;2023-01-30T14:15:26;5.90;81.40
70244;DHT22;57634;51.136;17.024;2023-01-30T14:18:33;5.90;81.30
70244;DHT22;57634;51.136;17.024;2023-01-30T14:21:56;6.00;81.10
70244;DHT22;57634;51.136;17.024;2023-01-30T14:28:42;6.10;80.80
70244;DHT22;57634;51.136;17.024;2023-01-30T14:31:48;6.10;80.60
70244;DHT22;57634;51.136;17.024;2023-01-30T14:38:14;6.10;79.40
70244;DHT22;57634;51.136;17.024;2023-01-30T14:44:59;6.10;79.20
70244;DHT22;57634;51.136;17.024;2023-01-30T14:51:32;6.00;78.60
70244;DHT22;57634;51.136;17.024;2023-01-30T14:54:31;5.90;78.00
70244;DHT22;57634;51.136;17.024;2023-01-30T14:57:34;5.90;78.10
70244;DHT22;57634;51.136;17.024;2023-01-30T15:00:37;5.90;78.10
70244;DHT22;57634;51.136;17.024;2023-01-30T15:04:05;5.90;78.00
70244;DHT22;57634;51.136;17.024;2023-01-30T15:07:11;5.90;78.00
70244;DHT22;57634;51.136;17.024;2023-01-30T15:16:54;5.90;77.50
70244;DHT22;57634;51.136;17.024;2023-01-30T15:20:35;5.80;77.20
70244;DHT22;57634;51.136;17.024;2023-01-30T15:33:50;5.70;77.10
70244;DHT22;57634;51.136;17.024;2023-01-30T15:36:52;5.70;77.10
70244;DHT22;57634;51.136;17.024;2023-01-30T15:46:29;5.60;77.20
70244;DHT22;57634;51.136;17.024;2023-01-30T15:53:14;5.60;77.20
70244;DHT22;57634;51.136;17.024;2023-01-30T15:56:22;5.60;77.20
70244;DHT22;57634;51.136;17.024;2023-01-30T15:59:34;5.50;77.10
70244;DHT22;57634;51.136;17.024;2023-01-30T16:02:37;5.50;77.10
70244;DHT22;57634;51.136;17.024;2023-01-30T16:05:50;5.50;77.10
70244;DHT22;57634;51.136;17.024;2023-01-30T16:09:01;5.50;77.10
70244;DHT22;57634;51.136;17.024;2023-01-30T16:14:02;5.50;77.10
70244;DHT22;57634;51.136;17.024;2023-01-30T16:17:05;5.50;77.10
70244;DHT22;57634;51.136;17.024;2023-01-30T16:20:12;5.50;77.10
70244;DHT22;57634;51.136;17.024;2023-01-30T16:26:29;5.50;76.90
70244;DHT22;57634;51.136;17.024;2023-01-30T16:29:47;5.50;76.80
70244;DHT22;57634;51.136;17.024;2023-01-30T16:33:15;5.60;74.90
70244;DHT22;57634;51.136;17.024;2023-01-30T16:36:30;5.60;76.90
70244;DHT22;57634;51.136;17.024;2023-01-30T16:39:36;5.60;76.70
70244;DHT22;57634;51.136;17.024;2023-01-30T16:42:38;5.60;76.60
70244;DHT22;57634;51.136;17.024;2023-01-30T16:45:57;5.60;76.60
70244;DHT22;57634;51.136;17.024;2023-01-30T16:49:00;5.70;76.50
70244;DHT22;57634;51.136;17.024;2023-01-30T16:52:34;5.70;76.40
70244;DHT22;57634;51.136;17.024;2023-01-30T16:58:57;5.70;76.20
70244;DHT22;57634;51.136;17.024;2023-01-30T17:02:01;5.70;76.10
70244;DHT22;57634;51.136;17.024;2023-01-30T17:05:20;5.70;76.10
70244;DHT22;57634;51.136;17.024;2023-01-30T17:08:49;5.70;75.90
70244;DHT22;57634;51.136;17.024;2023-01-30T17:11:53;5.70;75.90
70244;DHT22;57634;51.136;17.024;2023-01-30T17:18:07;5.70;76.00
70244;DHT22;57634;51.136;17.024;2023-01-30T17:21:12;5.80;76.10
70244;DHT22;57634;51.136;17.024;2023-01-30T17:24:16;5.80;76.20
70244;DHT22;57634;51.136;17.024;2023-01-30T17:27:19;5.80;76.40
70244;DHT22;57634;51.136;17.024;2023-01-30T17:30:21;5.70;76.30
70244;DHT22;57634;51.136;17.024;2023-01-30T17:33:50;5.70;76.20
70244;DHT22;57634;51.136;17.024;2023-01-30T17:36:52;5.80;76.70
70244;DHT22;57634;51.136;17.024;2023-01-30T17:39:54;5.70;77.10
70244;DHT22;57634;51.136;17.024;2023-01-30T17:42:55;5.60;77.50
70244;DHT22;57634;51.136;17.024;2023-01-30T17:45:56;5.60;77.90
70244;DHT22;57634;51.136;17.024;2023-01-30T17:48:57;5.60;78.20
70244;DHT22;57634;51.136;17.024;2023-01-30T17:51:58;5.50;78.50
70244;DHT22;57634;51.136;17.024;2023-01-30T17:55:00;5.50;78.90
70244;DHT22;57634;51.136;17.024;2023-01-30T17:58:02;5.50;79.10
70244;DHT22;57634;51.136;17.024;2023-01-30T18:01:03;5.40;79.40
70244;DHT22;57634;51.136;17.024;2023-01-30T18:04:05;5.40;79.80
70244;DHT22;57634;51.136;17.024;2023-01-30T18:07:11;5.40;80.30
70244;DHT22;57634;51.136;17.024;2023-01-30T18:10:16;5.30;80.60
70244;DHT22;57634;51.136;17.024;2023-01-30T18:13:43;5.30;80.80
70244;DHT22;57634;51.136;17.024;2023-01-30T18:16:47;5.20;80.90
70244;DHT22;57634;51.136;17.024;2023-01-30T18:19:49;5.20;81.00
70244;DHT22;57634;51.136;17.024;2023-01-30T18:22:50;5.20;81.10
70244;DHT22;57634;51.136;17.024;2023-01-30T18:25:51;5.10;81.30
70244;DHT22;57634;51.136;17.024;2023-01-30T18:28:53;5.10;81.40
70244;DHT22;57634;51.136;17.024;2023-01-30T18:31:54;5.10;81.50
70244;DHT22;57634;51.136;17.024;2023-01-30T18:34:56;5.10;81.60
70244;DHT22;57634;51.136;17.024;2023-01-30T18:37:58;5.10;81.70
70244;DHT22;57634;51.136;17.024;2023-01-30T18:41:06;5.00;81.60
70244;DHT22;57634;51.136;17.024;2023-01-30T18:44:09;5.10;81.80
70244;DHT22;57634;51.136;17.024;2023-01-30T18:47:10;5.00;81.80
70244;DHT22;57634;51.136;17.024;2023-01-30T18:50:39;5.10;82.00
70244;DHT22;57634;51.136;17.024;2023-01-30T18:53:41;5.10;82.10
70244;DHT22;57634;51.136;17.024;2023-01-30T18:56:43;5.00;82.10
70244;DHT22;57634;51.136;17.024;2023-01-30T18:59:44;5.00;82.30
70244;DHT22;57634;51.136;17.024;2023-01-30T19:02:52;5.00;82.40
70244;DHT22;57634;51.136;17.024;2023-01-30T19:05:54;5.00;82.60
70244;DHT22;57634;51.136;17.024;2023-01-30T19:08:56;5.00;82.80
70244;DHT22;57634;51.136;17.024;2023-01-30T19:11:57;5.00;82.90
70244;DHT22;57634;51.136;17.024;2023-01-30T19:15:11;5.00;83.20
70244;DHT22;57634;51.136;17.024;2023-01-30T19:18:12;4.90;83.30
70244;DHT22;57634;51.136;17.024;2023-01-30T19:21:39;4.90;83.40
70244;DHT22;57634;51.136;17.024;2023-01-30T19:24:40;4.90;83.50
70244;DHT22;57634;51.136;17.024;2023-01-30T19:27:42;4.90;83.60
70244;DHT22;57634;51.136;17.024;2023-01-30T19:30:44;4.90;83.80
70244;DHT22;57634;51.136;17.024;2023-01-30T19:33:51;4.90;83.90
70244;DHT22;57634;51.136;17.024;2023-01-30T19:36:52;4.90;83.90
70244;DHT22;57634;51.136;17.024;2023-01-30T19:39:54;4.90;83.90
70244;DHT22;57634;51.136;17.024;2023-01-30T19:42:56;4.90;83.80
70244;DHT22;57634;51.136;17.024;2023-01-30T19:45:58;4.90;83.80
70244;DHT22;57634;51.136;17.024;2023-01-30T19:49:00;4.90;83.90
70244;DHT22;57634;51.136;17.024;2023-01-30T19:52:03;4.90;83.90
70244;DHT22;57634;51.136;17.024;2023-01-30T19:55:06;5.00;83.90
70244;DHT22;57634;51.136;17.024;2023-01-30T19:58:34;5.00;83.90
70244;DHT22;57634;51.136;17.024;2023-01-30T20:01:36;5.00;83.90
70244;DHT22;57634;51.136;17.024;2023-01-30T20:04:40;5.00;83.90
70244;DHT22;57634;51.136;17.024;2023-01-30T20:07:42;5.00;84.00
70244;DHT22;57634;51.136;17.024;2023-01-30T20:10:46;5.00;84.00
70244;DHT22;57634;51.136;17.024;2023-01-30T20:13:47;5.10;84.00
70244;DHT22;57634;51.136;17.024;2023-01-30T20:16:48;5.10;83.90
70244;DHT22;57634;51.136;17.024;2023-01-30T20:19:50;5.10;84.00
70244;DHT22;57634;51.136;17.024;2023-01-30T20:22:51;5.10;84.10
70244;DHT22;57634;51.136;17.024;2023-01-30T20:25:52;5.10;84.20
70244;DHT22;57634;51.136;17.024;2023-01-30T20:28:55;5.00;84.20
70244;DHT22;57634;51.136;17.024;2023-01-30T20:31:57;5.00;84.40
70244;DHT22;57634;51.136;17.024;2023-01-30T20:34:58;4.80;84.50
70244;DHT22;57634;51.136;17.024;2023-01-30T20:38:29;4.80;84.80
70244;DHT22;57634;51.136;17.024;2023-01-30T20:41:31;4.70;85.30
70244;DHT22;57634;51.136;17.024;2023-01-30T20:44:37;4.70;85.60
70244;DHT22;57634;51.136;17.024;2023-01-30T20:47:39;4.70;85.80
70244;DHT22;57634;51.136;17.024;2023-01-30T20:50:42;4.70;86.00
70244;DHT22;57634;51.136;17.024;2023-01-30T20:53:49;4.60;86.20
70244;DHT22;57634;51.136;17.024;2023-01-30T20:56:52;4.60;86.40
70244;DHT22;57634;51.136;17.024;2023-01-30T20:59:53;4.60;86.60
70244;DHT22;57634;51.136;17.024;2023-01-30T21:02:54;4.60;86.60
70244;DHT22;57634;51.136;17.024;2023-01-30T21:05:59;4.60;86.60
70244;DHT22;57634;51.136;17.024;2023-01-30T21:09:27;4.70;86.90
70244;DHT22;57634;51.136;17.024;2023-01-30T21:12:28;4.70;87.00
70244;DHT22;57634;51.136;17.024;2023-01-30T21:15:30;4.70;87.00
70244;DHT22;57634;51.136;17.024;2023-01-30T21:18:34;4.70;87.10
70244;DHT22;57634;51.136;17.024;2023-01-30T21:21:40;4.70;87.10
70244;DHT22;57634;51.136;17.024;2023-01-30T21:24:42;4.80;87.20
70244;DHT22;57634;51.136;17.024;2023-01-30T21:27:43;4.80;87.20
70244;DHT22;57634;51.136;17.024;2023-01-30T21:30:45;4.80;87.20
70244;DHT22;57634;51.136;17.024;2023-01-30T21:33:47;4.90;87.20
70244;DHT22;57634;51.136;17.024;2023-01-30T21:36:49;4.90;87.00
70244;DHT22;57634;51.136;17.024;2023-01-30T21:40:28;4.90;86.90
70244;DHT22;57634;51.136;17.024;2023-01-30T21:43:46;5.00;86.80
70244;DHT22;57634;51.136;17.024;2023-01-30T21:46:48;5.00;86.70
70244;DHT22;57634;51.136;17.024;2023-01-30T21:49:52;5.00;86.70
70244;DHT22;57634;51.136;17.024;2023-01-30T21:52:54;5.00;86.50
70244;DHT22;57634;51.136;17.024;2023-01-30T21:55:55;5.00;86.50
70244;DHT22;57634;51.136;17.024;2023-01-30T21:58:58;5.00;86.50
70244;DHT22;57634;51.136;17.024;2023-01-30T22:01:59;5.00;86.40
70244;DHT22;57634;51.136;17.024;2023-01-30T22:05:00;5.00;86.30
70244;DHT22;57634;51.136;17.024;2023-01-30T22:08:30;5.10;86.20
70244;DHT22;57634;51.136;17.024;2023-01-30T22:11:34;5.00;86.00
70244;DHT22;57634;51.136;17.024;2023-01-30T22:14:37;5.10;86.00
70244;DHT22;57634;51.136;17.024;2023-01-30T22:17:38;5.10;85.90
70244;DHT22;57634;51.136;17.024;2023-01-30T22:20:39;5.10;85.70
70244;DHT22;57634;51.136;17.024;2023-01-30T22:23:42;5.00;85.40
70244;DHT22;57634;51.136;17.024;2023-01-30T22:26:43;5.00;85.20
70244;DHT22;57634;51.136;17.024;2023-01-30T22:29:45;5.00;85.10
70244;DHT22;57634;51.136;17.024;2023-01-30T22:32:46;5.00;85.00
70244;DHT22;57634;51.136;17.024;2023-01-30T22:35:48;5.00;84.80
70244;DHT22;57634;51.136;17.024;2023-01-30T22:38:50;5.00;84.70
70244;DHT22;57634;51.136;17.024;2023-01-30T22:41:51;5.00;84.60
70244;DHT22;57634;51.136;17.024;2023-01-30T22:44:53;5.00;84.50